Terminal Aerodrome Forecast
Issued by NWS

Home | Current Version | Previous Version | Graphics & Text | Print | Product List | Glossary On
Versions: 1 2 3 4 5 6 7 8 9 10 11 12
000
FTUS43 KMPX 221132
TAFRNH
TAF
KRNH 221132Z 2212/2312 VRB03KT P6SM SCT030
     FM221400 VRB03KT P6SM -SHRA SCT050 BKN080
     FM221600 34004KT 6SM -RA BR VCTS SCT040 BKN070CB
      TEMPO 2217/2221 3SM TSRA OVC040CB
     FM222200 29004KT 6SM -SHRA BR OVC050
     FM230100 28005KT P6SM BKN090=

USA.gov is the U.S. government's official web portal to all federal, state and local government web resources and services.